Time;durP1;ratioP1;P1;durP2;ratioP2;P2;SDS_P1;SDS_P2;PMS_P1;PMS_P2;Temp;Humidity;BMP_temperature;BMP_pressure;BME280_temperature;BME280_humidity;BME280_pressure;Samples;Min_cycle;Max_cycle;Signal;HPM_P1;HPM_P2
2022/05/31 00:06:20;;;;;;;5.77;2.67;;;12.20;70.90;;;;;;20923769;28;20237;-72
2022/05/31 00:16:22;;;;;;;4.30;2.43;;;12.10;71.20;;;;;;20922218;28;20331;-75
2022/05/31 00:26:25;;;;;;;3.03;2.37;;;11.90;72.00;;;;;;20917463;28;20645;-70
2022/05/31 00:36:27;;;;;;;4.40;2.37;;;11.90;72.50;;;;;;20920505;28;20236;-70
2022/05/31 00:46:40;;;;;;;3.83;2.50;;;11.70;72.90;;;;;;20920067;28;20277;-71
2022/05/31 00:56:44;;;;;;;3.67;2.50;;;11.60;73.50;;;;;;20919368;28;20232;-72
2022/05/31 01:06:46;;;;;;;3.30;2.70;;;11.60;74.00;;;;;;20918723;28;20552;-74
2022/05/31 01:17:03;;;;;;;3.43;2.47;;;11.60;74.20;;;;;;20917643;28;20240;-68
2022/05/31 01:27:24;;;;;;;4.87;2.87;;;11.30;75.30;;;;;;20916794;28;20230;-70
2022/05/31 01:37:34;;;;;;;4.40;2.67;;;11.30;75.10;;;;;;20916633;28;20211;-68
2022/05/31 01:47:36;;;;;;;5.07;2.87;;;11.20;75.70;;;;;;20914616;28;20254;-75
2022/05/31 01:57:42;;;;;;;4.03;3.00;;;11.20;75.80;;;;;;20916459;28;20731;-77
2022/05/31 02:07:59;;;;;;;4.60;3.07;;;11.00;76.20;;;;;;20915719;28;20639;-75
2022/05/31 02:18:00;;;;;;;3.90;2.73;;;11.00;76.50;;;;;;20913122;28;20211;-72
2022/05/31 02:28:02;;;;;;;4.37;2.60;;;10.90;76.60;;;;;;20910348;28;20703;-72
2022/05/31 02:38:05;;;;;;;3.37;2.70;;;10.90;76.80;;;;;;20911968;28;20722;-68
2022/05/31 02:48:07;;;;;;;3.60;2.80;;;10.80;76.90;;;;;;20911843;28;20242;-70
2022/05/31 02:58:09;;;;;;;3.30;2.57;;;10.80;77.30;;;;;;20920884;28;20731;-68
2022/05/31 03:08:12;;;;;;;4.37;3.20;;;10.80;77.40;;;;;;20927604;28;20226;-73
2022/05/31 03:18:18;;;;;;;4.03;2.83;;;10.70;77.60;;;;;;20927300;28;20208;-74
2022/05/31 03:28:21;;;;;;;3.33;2.80;;;10.70;77.90;;;;;;20926066;28;20241;-74
2022/05/31 03:38:23;;;;;;;7.13;2.87;;;10.70;78.40;;;;;;20925359;28;20250;-72
2022/05/31 03:48:25;;;;;;;4.27;2.83;;;10.70;78.40;;;;;;20925122;28;20227;-73
2022/05/31 03:58:27;;;;;;;4.70;3.27;;;10.70;78.80;;;;;;20924155;28;20757;-71
2022/05/31 04:08:28;;;;;;;3.87;2.90;;;10.80;79.00;;;;;;20921912;28;20235;-73
2022/05/31 04:18:30;;;;;;;3.67;2.70;;;10.60;79.20;;;;;;20922403;28;20564;-69
2022/05/31 04:28:32;;;;;;;6.43;3.70;;;10.80;79.40;;;;;;20917551;28;20242;-71
2022/05/31 04:38:38;;;;;;;5.40;2.80;;;10.80;79.20;;;;;;20920683;28;20230;-71
2022/05/31 04:48:40;;;;;;;8.87;3.40;;;10.90;79.80;;;;;;20918958;28;20699;-68
2022/05/31 04:58:41;;;;;;;8.53;3.87;;;10.90;79.60;;;;;;20933595;28;20276;-70
2022/05/31 05:08:44;;;;;;;14.17;4.47;;;11.00;80.30;;;;;;21000807;28;20231;-74
2022/05/31 05:18:45;;;;;;;10.90;4.10;;;11.30;80.00;;;;;;20999657;28;20200;-67
2022/05/31 05:39:10;;;;;;;9.83;3.60;;;11.90;80.00;;;;;;20998786;28;20214;-75
2022/05/31 05:49:12;;;;;;;6.60;3.40;;;12.20;79.30;;;;;;20997421;28;20269;-72
2022/05/31 05:59:14;;;;;;;7.90;2.90;;;12.50;78.60;;;;;;20995185;28;20714;-71
2022/05/31 06:09:20;;;;;;;5.83;3.33;;;12.80;77.80;;;;;;20995740;28;20288;-75
2022/05/31 06:19:44;;;;;;;7.03;3.80;;;13.10;77.30;;;;;;20992795;28;20211;-73
2022/05/31 06:29:46;;;;;;;7.87;3.40;;;13.50;76.90;;;;;;20908339;28;20719;-73
2022/05/31 06:39:47;;;;;;;6.10;3.10;;;13.80;75.90;;;;;;20909922;28;20273;-75
2022/05/31 06:49:49;;;;;;;8.33;3.87;;;14.20;75.40;;;;;;20908265;28;20756;-71
2022/05/31 06:59:51;;;;;;;9.77;3.17;;;14.60;74.60;;;;;;20910219;28;20296;-74
2022/05/31 07:09:53;;;;;;;5.37;2.73;;;14.90;73.70;;;;;;20908302;28;20261;-73
2022/05/31 07:19:55;;;;;;;4.70;2.93;;;15.20;73.30;;;;;;20909560;28;20217;-75
2022/05/31 07:30:08;;;;;;;5.20;2.63;;;15.40;72.50;;;;;;20909040;28;20243;-73
2022/05/31 07:40:10;;;;;;;5.27;2.53;;;15.80;71.90;;;;;;20911277;28;20207;-69
2022/05/31 07:50:12;;;;;;;10.53;5.73;;;16.10;71.30;;;;;;20923372;28;20241;-67
2022/05/31 08:00:14;;;;;;;3.23;2.60;;;16.40;70.80;;;;;;20922377;28;20204;-68
2022/05/31 08:10:17;;;;;;;3.97;2.87;;;16.60;69.90;;;;;;20920201;28;20232;-72
2022/05/31 08:20:19;;;;;;;4.23;2.70;;;16.90;69.20;;;;;;20918229;28;20204;-67
2022/05/31 08:30:21;;;;;;;15.57;2.47;;;17.20;68.20;;;;;;20917123;28;20240;-69
2022/05/31 08:40:23;;;;;;;5.97;2.73;;;17.50;67.80;;;;;;20917358;28;20268;-68
2022/05/31 09:00:53;;;;;;;5.20;3.30;;;17.90;66.40;;;;;;20917255;28;20238;-69
2022/05/31 09:11:03;;;;;;;4.60;3.03;;;18.10;66.00;;;;;;20916745;28;20672;-67
2022/05/31 09:21:16;;;;;;;7.83;2.97;;;18.20;65.50;;;;;;20915377;28;20216;-69
2022/05/31 09:31:20;;;;;;;11.53;2.70;;;18.40;64.90;;;;;;20914837;28;20294;-74
2022/05/31 09:42:09;;;;;;;4.80;2.40;;;18.60;64.30;;;;;;20914992;28;20222;-68
2022/05/31 09:52:33;;;;;;;3.67;2.40;;;19.00;63.60;;;;;;20911132;28;20251;-69
2022/05/31 10:02:36;;;;;;;3.23;2.53;;;19.10;62.80;;;;;;20911971;28;20258;-70
2022/05/31 10:12:50;;;;;;;3.83;2.20;;;19.40;62.10;;;;;;20912280;28;20237;-69
2022/05/31 10:23:01;;;;;;;5.13;2.20;;;19.60;61.00;;;;;;20911163;28;20205;-71
2022/05/31 10:33:03;;;;;;;6.83;3.40;;;19.90;59.20;;;;;;20909299;28;20287;-73
2022/05/31 10:43:36;;;;;;;2.27;1.60;;;20.10;57.70;;;;;;20909507;28;20215;-72
2022/05/31 10:53:50;;;;;;;5.17;1.70;;;20.50;56.20;;;;;;20909733;28;20365;-76
2022/05/31 11:04:19;;;;;;;2.40;1.70;;;20.70;54.90;;;;;;20909734;28;20235;-74
2022/05/31 11:14:54;;;;;;;14.43;1.90;;;20.70;53.20;;;;;;20909864;28;20243;-71
2022/05/31 11:24:59;;;;;;;2.77;1.53;;;20.90;51.90;;;;;;20924371;28;20777;-70
2022/05/31 11:35:30;;;;;;;2.80;1.30;;;21.20;49.80;;;;;;20924103;28;20231;-70
2022/05/31 11:46:01;;;;;;;2.50;1.87;;;21.50;49.00;;;;;;20922613;28;20216;-69
2022/05/31 11:56:11;;;;;;;2.37;1.47;;;21.60;48.10;;;;;;20921362;28;20266;-69
2022/05/31 12:06:38;;;;;;;4.10;1.70;;;21.90;47.50;;;;;;20929648;28;20210;-73
2022/05/31 12:16:41;;;;;;;2.37;1.80;;;21.90;47.90;;;;;;20994234;28;20239;-74
2022/05/31 12:27:04;;;;;;;2.70;1.90;;;21.90;48.50;;;;;;20999882;28;20227;-75
2022/05/31 12:37:08;;;;;;;4.13;1.70;;;22.00;48.90;;;;;;21002309;28;20682;-74
2022/05/31 12:47:14;;;;;;;11.33;3.00;;;22.30;49.50;;;;;;21001670;28;20219;-74
2022/05/31 12:58:26;;;;;;;3.50;1.50;;;22.40;49.50;;;;;;21000098;28;20227;-75
2022/05/31 13:08:18;;;;;;;4.30;1.30;;;22.40;48.70;;;;;;20997718;28;20211;-74
2022/05/31 13:28:55;;;;;;;3.50;2.00;;;22.00;42.20;;;;;;20997990;28;20239;-75
2022/05/31 13:39:05;;;;;;;3.80;2.23;;;21.90;42.40;;;;;;20997255;28;20207;-74
2022/05/31 13:49:16;;;;;;;4.43;1.87;;;21.90;42.10;;;;;;20998529;28;20227;-71
2022/05/31 13:59:51;;;;;;;1.83;1.40;;;21.90;42.00;;;;;;20996622;28;20207;-71
2022/05/31 14:09:54;;;;;;;3.97;1.60;;;21.90;41.40;;;;;;20995957;28;20235;-73
2022/05/31 14:19:56;;;;;;;2.13;1.40;;;22.00;39.60;;;;;;20930169;28;20200;-70
2022/05/31 14:29:59;;;;;;;5.43;1.50;;;22.30;37.80;;;;;;20910985;28;20650;-65
2022/05/31 14:40:06;;;;;;;4.43;1.30;;;22.50;37.00;;;;;;20908389;28;20227;-65
2022/05/31 14:50:27;;;;;;;2.23;1.50;;;22.60;37.20;;;;;;20909492;28;20229;-67
2022/05/31 15:00:37;;;;;;;2.10;1.27;;;22.80;35.40;;;;;;20910780;28;20211;-64
2022/05/31 15:10:53;;;;;;;2.47;1.90;;;22.50;35.40;;;;;;20910518;28;20236;-63
2022/05/31 15:20:55;;;;;;;2.80;1.80;;;22.70;35.70;;;;;;20909940;28;20357;-63
2022/05/31 15:31:01;;;;;;;2.73;1.60;;;22.90;35.80;;;;;;20945688;28;20298;-66
2022/05/31 15:41:24;;;;;;;5.60;2.27;;;22.70;37.10;;;;;;20920735;28;20215;-62
2022/05/31 15:51:32;;;;;;;2.63;1.80;;;22.80;37.40;;;;;;20991686;28;20230;-65
2022/05/31 16:01:33;;;;;;;2.13;1.60;;;22.70;37.00;;;;;;20993384;28;20605;-61
2022/05/31 16:11:35;;;;;;;8.13;1.60;;;23.40;37.10;;;;;;21005921;28;20664;-61
2022/05/31 16:21:37;;;;;;;4.70;1.80;;;23.80;36.70;;;;;;20965203;28;20659;-71
2022/05/31 16:31:46;;;;;;;3.77;1.43;;;23.50;36.60;;;;;;20924481;28;20248;-67
2022/05/31 16:41:48;;;;;;;4.33;1.53;;;23.10;38.00;;;;;;20921280;28;20538;-68
2022/05/31 16:51:52;;;;;;;7.33;1.50;;;22.80;38.60;;;;;;20920161;28;20244;-73
2022/05/31 17:01:55;;;;;;;3.27;1.70;;;22.60;38.40;;;;;;20918638;28;20207;-73
2022/05/31 17:22:25;;;;;;;9.27;1.60;;;22.40;39.20;;;;;;20952496;28;20204;-63
2022/05/31 17:32:29;;;;;;;3.70;1.53;;;22.50;39.60;;;;;;20917359;28;20243;-71
2022/05/31 17:42:31;;;;;;;4.53;1.77;;;22.30;40.00;;;;;;20916130;28;20357;-76
2022/05/31 17:52:34;;;;;;;2.43;1.50;;;22.50;40.20;;;;;;20913362;28;20269;-68
2022/05/31 18:02:36;;;;;;;5.30;1.53;;;22.80;40.30;;;;;;20960999;28;20207;-74
2022/05/31 18:12:38;;;;;;;4.80;1.80;;;22.20;40.80;;;;;;20995875;28;20764;-69
2022/05/31 18:22:42;;;;;;;3.17;2.00;;;21.80;41.60;;;;;;20947439;28;20212;-71
2022/05/31 18:32:44;;;;;;;3.53;2.20;;;21.50;42.30;;;;;;20911950;28;20305;-71
2022/05/31 18:42:46;;;;;;;6.43;1.77;;;21.20;42.80;;;;;;20912040;28;20210;-74
2022/05/31 18:52:49;;;;;;;2.77;1.67;;;20.80;43.50;;;;;;20911594;28;20289;-77
2022/05/31 19:02:51;;;;;;;9.83;5.17;;;20.40;44.70;;;;;;20911618;28;20218;-71
2022/05/31 19:12:58;;;;;;;6.43;2.30;;;20.20;45.10;;;;;;20910635;28;21003;-69
2022/05/31 19:22:59;;;;;;;4.60;2.50;;;20.00;46.00;;;;;;20908822;28;20210;-68
2022/05/31 19:33:05;;;;;;;4.03;2.37;;;19.80;47.00;;;;;;20943206;28;20839;-65
2022/05/31 19:43:10;;;;;;;3.43;2.30;;;19.60;47.70;;;;;;21004439;28;20206;-62
2022/05/31 19:53:18;;;;;;;3.53;2.20;;;19.50;48.00;;;;;;21005936;28;20272;-62
2022/05/31 20:03:20;;;;;;;5.20;2.17;;;19.40;48.80;;;;;;21005429;28;20664;-62
2022/05/31 20:13:22;;;;;;;8.63;1.90;;;19.20;50.00;;;;;;21002420;28;20231;-62
2022/05/31 20:23:25;;;;;;;5.90;2.20;;;19.00;50.10;;;;;;21003215;28;20613;-60
2022/05/31 20:33:27;;;;;;;2.43;1.80;;;18.90;51.10;;;;;;21003185;28;20236;-60
2022/05/31 20:43:29;;;;;;;2.80;2.10;;;18.70;52.10;;;;;;21001514;28;20231;-62
2022/05/31 20:53:34;;;;;;;4.13;2.30;;;18.60;53.10;;;;;;21000191;28;20240;-65
2022/05/31 21:03:36;;;;;;;4.97;2.20;;;18.40;54.10;;;;;;21001089;28;20210;-66
2022/05/31 21:13:39;;;;;;;2.93;1.90;;;18.30;54.70;;;;;;20999526;28;20280;-67
2022/05/31 21:23:41;;;;;;;4.50;2.30;;;18.30;55.40;;;;;;21060035;28;20232;-64
2022/05/31 21:33:44;;;;;;;3.17;1.90;;;18.30;56.70;;;;;;21081393;28;20253;-68
2022/05/31 21:43:47;;;;;;;2.90;2.20;;;18.30;58.50;;;;;;21080421;28;20212;-72
2022/05/31 21:53:50;;;;;;;2.90;2.23;;;18.40;59.80;;;;;;21081380;28;20234;-73
2022/05/31 22:03:53;;;;;;;2.90;2.30;;;18.20;61.70;;;;;;21080950;28;20207;-70
2022/05/31 22:14:04;;;;;;;4.50;2.50;;;18.10;63.90;;;;;;21079416;28;20679;-66
2022/05/31 22:24:08;;;;;;;3.93;2.40;;;17.90;65.90;;;;;;20983999;28;20261;-69
2022/05/31 22:34:09;;;;;;;2.60;2.40;;;17.80;67.30;;;;;;20996128;28;20239;-74
2022/05/31 22:44:11;;;;;;;6.13;2.57;;;17.70;68.10;;;;;;20995129;28;20203;-71
2022/05/31 22:54:14;;;;;;;3.47;2.70;;;17.50;69.70;;;;;;20994781;28;20600;-75
2022/05/31 23:04:18;;;;;;;4.00;2.70;;;17.30;72.40;;;;;;20994524;28;20258;-72
2022/05/31 23:14:20;;;;;;;5.00;2.70;;;17.20;73.90;;;;;;21086100;28;20716;-68
2022/05/31 23:24:22;;;;;;;4.27;2.80;;;17.10;75.40;;;;;;21093931;28;20233;-69
2022/05/31 23:34:28;;;;;;;3.13;2.50;;;17.10;76.50;;;;;;21093180;28;20759;-67
2022/05/31 23:44:30;;;;;;;4.37;2.50;;;17.00;77.00;;;;;;21092619;28;20284;-73
2022/05/31 23:54:35;;;;;;;3.23;2.50;;;16.90;77.50;;;;;;21091429;28;20634;-67
